Terminal Aerodrome Forecast
Issued by NWS Louisville, KY

Home | Current Version | Previous Version | Text Only | Print | Product List | Glossary On
Versions: 1 2 3 4 5 6 7 8 9 10 11 12 13 14 15 16 17
219
FTUS43 KLMK 181615 AAA
TAFBWG
TAF AMD
KBWG 181615Z 1816/1912 29009KT P6SM FEW035 SCT050
     FM182300 27004KT P6SM FEW250
     FM190900 VRB02KT 4SM BR SKC=

USA.gov is the U.S. government's official web portal to all federal, state and local government web resources and services.